^^
Station Historical Data
Daily Summary for January 26, 2017 Units:  Metric    English   Both
« Previous Day
Next Day »
Daily Weekly Monthly Yearly Custom
  High: Low: Average:
Temperature: -17.8 °C -18.2 °C -16.9 °C
Dew Point: -17.8 °C -18.8 °C -17.5 °C
Humidity: Humidity% 92% 92%
Wind Speed: 0km/h 0km/h 1.8km/h
Wind Gust: 0km/h - -
Wind- - WSW
Pressure: 0 hPa 34395 hPa -
Precipitation: 0 mm    
Historical Graphs
 
 
Tabular Data for January 26, 2017
Time Temperature Dew Point Pressure Wind Wind Speed Wind Gust Humidity Rainfall Rate (Hourly) solar Conditions
-17.8 °C -17.8 °C 0 hPa Calm     Humidity% 0 mm SoftwareType W/m2 Conditions
00:04 -18.2 °C -18.8 °C 34635.4 hPa NW 4.2 km/h 9 km/h 92% 0 mm WeatherDisplay:10.37 W/m2 FEW
00:09 -18.2 °C -18.8 °C 34635.4 hPa South 15 km/h 26.9 km/h 92% 0 mm WeatherDisplay:10.37 W/m2 FEW
00:14 -18.2 °C -18.8 °C 34635.4 hPa WSW 7.7 km/h 11.9 km/h 92% 0 mm WeatherDisplay:10.37 W/m2 FEW
00:19 -18.2 °C -18.8 °C 34635.4 hPa SSW 2.6 km/h 9 km/h 92% 0 mm WeatherDisplay:10.37 W/m2 FEW
00:24 -18.2 °C -18.8 °C 34625.2 hPa SSE 6.3 km/h 11.9 km/h 92% 0 mm WeatherDisplay:10.37 W/m2 FEW
00:29 -18.1 °C -18.7 °C 34625.2 hPa West 8.2 km/h 11.9 km/h 92% 0 mm WeatherDisplay:10.37 W/m2 FEW
00:34 -18.1 °C -18.7 °C 34625.2 hPa SE 6 km/h 11.9 km/h 92% 0 mm WeatherDisplay:10.37 W/m2 FEW
00:39 -18.1 °C -18.7 °C 34611.7 hPa West 8.9 km/h 17.9 km/h 92% 0 mm WeatherDisplay:10.37 W/m2 FEW
00:44 -18 °C -18.7 °C 34611.7 hPa East 4.2 km/h 5.1 km/h 92% 0 mm WeatherDisplay:10.37 W/m2 FEW
00:49 -18 °C -18.7 °C 34611.7 hPa SSW 7.6 km/h 17.9 km/h 92% 0 mm WeatherDisplay:10.37 W/m2 FEW
00:54 -17.9 °C -18.6 °C 34611.7 hPa NE 8.9 km/h 20.9 km/h 92% 0 mm WeatherDisplay:10.37 W/m2 FEW
00:59 -17.9 °C -18.6 °C 34611.7 hPa NE 6 km/h 15 km/h 92% 0 mm WeatherDisplay:10.37 W/m2 FEW
01:04 -17.9 °C -18.6 °C 34611.7 hPa WSW 0.5 km/h 6 km/h 92% 0 mm WeatherDisplay:10.37 W/m2 FEW
01:09 -17.9 °C -18.5 °C 34611.7 hPa SSE 6.3 km/h 23.8 km/h 92% 0 mm WeatherDisplay:10.37 W/m2 FEW
01:14 -17.9 °C -18.5 °C 34611.7 hPa South 0.3 km/h 5.1 km/h 92% 0 mm WeatherDisplay:10.37 W/m2 FEW
01:19 -17.8 °C -18.5 °C 34611.7 hPa SSW 2.9 km/h 15 km/h 92% 0 mm WeatherDisplay:10.37 W/m2 FEW
01:24 -17.8 °C -18.4 °C 34601.5 hPa NNE 5 km/h 9 km/h 92% 0 mm WeatherDisplay:10.37 W/m2 FEW
01:29 -17.8 °C -18.4 °C 34601.5 hPa SW 1.6 km/h 6 km/h 92% 0 mm WeatherDisplay:10.37 W/m2 FEW
01:34 -17.8 °C -18.4 °C 34591.4 hPa NNE 5.6 km/h 11.9 km/h 92% 0 mm WeatherDisplay:10.37 W/m2 FEW
01:39 -17.7 °C -18.4 °C 34591.4 hPa SE 2.3 km/h 9 km/h 92% 0 mm WeatherDisplay:10.37 W/m2 FEW
01:44 -17.7 °C -18.4 °C 34591.4 hPa North 3.9 km/h 9 km/h 92% 0 mm WeatherDisplay:10.37 W/m2 FEW
01:49 -17.7 °C -18.4 °C 34591.4 hPa SSW 11.9 km/h 44.7 km/h 92% 0 mm WeatherDisplay:10.37 W/m2 FEW
01:54 -17.7 °C -18.4 °C 34591.4 hPa WNW 2.9 km/h 20.8 km/h 92% 0 mm WeatherDisplay:10.37 W/m2 FEW
01:59 -17.7 °C -18.3 °C 34577.8 hPa NW 6.3 km/h 12.9 km/h 92% 0 mm WeatherDisplay:10.37 W/m2 FEW
02:04 -17.7 °C -18.3 °C 34577.8 hPa WNW 5.5 km/h 9 km/h 92% 0 mm WeatherDisplay:10.37 W/m2 FEW
02:09 -17.7 °C -18.3 °C 34567.7 hPa South 8.9 km/h 20.9 km/h 92% 0 mm WeatherDisplay:10.37 W/m2 FEW
02:14 -17.7 °C -18.3 °C 34567.7 hPa SSE 5.6 km/h 15.6 km/h 92% 0 mm WeatherDisplay:10.37 W/m2 FEW
02:19 -17.7 °C -18.3 °C 34567.7 hPa NNE 3.1 km/h 9 km/h 92% 0 mm WeatherDisplay:10.37 W/m2 FEW
02:24 -17.7 °C -18.3 °C 34554.1 hPa SW 6.9 km/h 15 km/h 92% 0 mm WeatherDisplay:10.37 W/m2 FEW
02:29 -17.7 °C -18.3 °C 34554.1 hPa NW 5.1 km/h 38.8 km/h 92% 0 mm WeatherDisplay:10.37 W/m2 FEW
02:34 -17.6 °C -18.3 °C 34554.1 hPa South 10.6 km/h 23.8 km/h 92% 0 mm WeatherDisplay:10.37 W/m2 FEW
02:39 -17.6 °C -18.3 °C 34554.1 hPa West 6.3 km/h 10.3 km/h 92% 0 mm WeatherDisplay:10.37 W/m2 FEW
02:44 -17.6 °C -18.3 °C 34554.1 hPa WNW 9 km/h 15 km/h 92% 0 mm WeatherDisplay:10.37 W/m2 FEW
02:49 -17.6 °C -18.3 °C 34544 hPa WNW 0.8 km/h 6 km/h 92% 0 mm WeatherDisplay:10.37 W/m2 FEW
02:54 -17.6 °C -18.2 °C 34554.1 hPa NW 8.9 km/h 20.9 km/h 92% 0 mm WeatherDisplay:10.37 W/m2 FEW
02:59 -17.6 °C -18.2 °C 34544 hPa NW 3.1 km/h 9 km/h 92% 0 mm WeatherDisplay:10.37 W/m2 FEW
03:04 -17.6 °C -18.2 °C 34544 hPa SW 4.2 km/h 9 km/h 92% 0 mm WeatherDisplay:10.37 W/m2 FEW
03:09 -17.6 °C -18.2 °C 34533.8 hPa WSW 1.3 km/h 9 km/h 92% 0 mm WeatherDisplay:10.37 W/m2 FEW
03:14 -17.6 °C -18.2 °C 34533.8 hPa West 6.4 km/h 11.9 km/h 92% 0 mm WeatherDisplay:10.37 W/m2 FEW
03:19 -17.6 °C -18.2 °C 34533.8 hPa NNW 4.7 km/h 9 km/h 92% 0 mm WeatherDisplay:10.37 W/m2 FEW
03:24 -17.5 °C -18.2 °C 34533.8 hPa SW 3.1 km/h 9 km/h 92% 0 mm WeatherDisplay:10.37 W/m2 FEW
03:29 -17.5 °C -18.2 °C 34533.8 hPa WNW 9.3 km/h 9.3 km/h 92% 0 mm WeatherDisplay:10.37 W/m2 FEW
03:34 -17.4 °C -18.1 °C 34520.3 hPa East 0.5 km/h 6 km/h 92% 0 mm WeatherDisplay:10.37 W/m2 FEW
03:39 -17.4 °C -18.1 °C 34520.3 hPa WNW 0.8 km/h 6 km/h 92% 0 mm WeatherDisplay:10.37 W/m2 FEW
03:44 -17.4 °C -18.1 °C 34520.3 hPa South 1.6 km/h 3.1 km/h 92% 0 mm WeatherDisplay:10.37 W/m2 FEW
03:54 -17.4 °C -18.1 °C 34520.3 hPa NE 2.1 km/h 9 km/h 92% 0 mm WeatherDisplay:10.37 W/m2 FEW
03:59 -17.4 °C -18 °C 34520.3 hPa WNW 4.3 km/h 6 km/h 92% 0 mm WeatherDisplay:10.37 W/m2 FEW
04:04 -17.4 °C -18 °C 34510.1 hPa WSW 6.4 km/h 17.9 km/h 92% 0 mm WeatherDisplay:10.37 W/m2 FEW
04:09 -17.3 °C -18 °C 34520.3 hPa SE 1.8 km/h 9 km/h 92% 0 mm WeatherDisplay:10.37 W/m2 FEW
04:14 -17.3 °C -17.9 °C 34520.3 hPa SSE 4.3 km/h 9 km/h 92% 0 mm WeatherDisplay:10.37 W/m2 FEW
04:19 -17.3 °C -17.9 °C 34510.1 hPa South 7.2 km/h 32.8 km/h 92% 0 mm WeatherDisplay:10.37 W/m2 FEW
04:24 -17.3 °C -17.9 °C 34510.1 hPa SSW 0.3 km/h 5.1 km/h 92% 0 mm WeatherDisplay:10.37 W/m2 FEW
04:29 -17.3 °C -17.9 °C 34510.1 hPa WSW 4.7 km/h 15 km/h 92% 0 mm WeatherDisplay:10.37 W/m2 FEW
04:34 -17.3 °C -17.9 °C 34496.6 hPa WSW 1.6 km/h 9 km/h 92% 0 mm WeatherDisplay:10.37 W/m2 FEW
04:39 -17.2 °C -17.9 °C 34510.1 hPa East 0.5 km/h 6 km/h 92% 0 mm WeatherDisplay:10.37 W/m2 FEW
04:44 -17.2 °C -17.9 °C 34496.6 hPa SSW 1.8 km/h 9 km/h 92% 0 mm WeatherDisplay:10.37 W/m2 FEW
04:49 -17.2 °C -17.9 °C 34496.6 hPa Calm     92% 0 mm WeatherDisplay:10.37 W/m2 FEW
04:54 -17.2 °C -17.8 °C 34496.6 hPa SSE 1.8 km/h 9 km/h 92% 0 mm WeatherDisplay:10.37 W/m2 FEW
04:59 -17.2 °C -17.8 °C 34486.4 hPa South 0.8 km/h 9 km/h 92% 0 mm WeatherDisplay:10.37 W/m2 FEW
05:04 -17.1 °C -17.8 °C 34486.4 hPa Calm     92% 0 mm WeatherDisplay:10.37 W/m2 FEW
05:09 -17.1 °C -17.8 °C 34486.4 hPa SW 2.9 km/h 9 km/h 92% 0 mm WeatherDisplay:10.37 W/m2 FEW
05:14 -17.1 °C -17.7 °C 34486.4 hPa WSW 1.3 km/h 9 km/h 92% 0 mm WeatherDisplay:10.37 W/m2 FEW
05:19 -17.1 °C -17.7 °C 34486.4 hPa Calm   2.6 km/h 92% 0 mm WeatherDisplay:10.37 W/m2 FEW
05:24 -17.1 °C -17.7 °C 34486.4 hPa South 2.6 km/h 9 km/h 92% 0 mm WeatherDisplay:10.37 W/m2 FEW
05:34 -17.1 °C -17.7 °C 34486.4 hPa ENE 2.1 km/h 9 km/h 92% 0 mm WeatherDisplay:10.37 W/m2 FEW
05:39 -17.1 °C -17.7 °C 34476.3 hPa SSW 2.1 km/h 9 km/h 92% 0 mm WeatherDisplay:10.37 W/m2 FEW
05:44 -17 °C -17.7 °C 34476.3 hPa SE 4.2 km/h 9 km/h 92% 0 mm WeatherDisplay:10.37 W/m2 FEW
05:49 -17 °C -17.7 °C 34476.3 hPa SSE 2.3 km/h 11.9 km/h 92% 0 mm WeatherDisplay:10.37 W/m2 FEW
05:54 -17 °C -17.6 °C 34476.3 hPa South 5.1 km/h 9 km/h 92% 0 mm WeatherDisplay:10.37 W/m2 FEW
05:59 -16.9 °C -17.6 °C 34476.3 hPa West 1.6 km/h 6 km/h 92% 0 mm WeatherDisplay:10.37 W/m2 FEW
06:04 -16.9 °C -17.6 °C 34476.3 hPa West 2.1 km/h 9 km/h 92% 0 mm WeatherDisplay:10.37 W/m2 FEW
06:09 -16.8 °C -17.4 °C 34476.3 hPa SSW 1.6 km/h 6 km/h 92% 0 mm WeatherDisplay:10.37 W/m2 FEW
06:14 -16.8 °C -17.4 °C 34486.4 hPa Calm     92% 0 mm WeatherDisplay:10.37 W/m2 FEW
06:19 -16.8 °C -17.4 °C 34486.4 hPa SW 1.8 km/h 6 km/h 92% 0 mm WeatherDisplay:10.37 W/m2 FEW
06:24 -16.7 °C -17.4 °C 34486.4 hPa Calm     92% 0 mm WeatherDisplay:10.37 W/m2 FEW
06:29 -16.7 °C -17.3 °C 34476.3 hPa Calm   3.1 km/h 92% 0 mm WeatherDisplay:10.37 W/m2 FEW
06:34 -16.7 °C -17.3 °C 34476.3 hPa West 0.3 km/h 2.6 km/h 92% 0 mm WeatherDisplay:10.37 W/m2 FEW
06:39 -16.7 °C -17.3 °C 34476.3 hPa SW 1 km/h 9 km/h 92% 0 mm WeatherDisplay:10.37 W/m2 FEW
06:44 -16.7 °C -17.3 °C 34476.3 hPa Calm     92% 0 mm WeatherDisplay:10.37 W/m2 FEW
06:49 -16.6 °C -17.3 °C 34476.3 hPa South 0.3 km/h 6 km/h 92% 0 mm WeatherDisplay:10.37 W/m2 FEW
06:54 -16.6 °C -17.3 °C 34476.3 hPa WSW 0.8 km/h 9 km/h 92% 0 mm WeatherDisplay:10.37 W/m2 FEW
06:59 -16.6 °C -17.3 °C 34462.7 hPa WNW 2.3 km/h   92% 0 mm WeatherDisplay:10.37 W/m2 FEW
07:04 -16.7 °C -17.3 °C 34462.7 hPa Calm     92% 0 mm WeatherDisplay:10.37 W/m2 FEW
07:09 -16.7 °C -17.3 °C 34462.7 hPa West 4.2 km/h 15 km/h 92% 0 mm WeatherDisplay:10.37 W/m2 FEW
07:14 -16.6 °C -17.3 °C 34452.6 hPa Calm     92% 0 mm WeatherDisplay:10.37 W/m2 FEW
07:19 -16.6 °C -17.3 °C 34452.6 hPa Calm   3.1 km/h 92% 0 mm WeatherDisplay:10.37 W/m2 FEW
07:24 -16.6 °C -17.3 °C 34452.6 hPa SSW 3.1 km/h 9 km/h 92% 0 mm WeatherDisplay:10.37 W/m2 FEW
07:29 -16.6 °C -17.3 °C 34442.4 hPa Calm     92% 0 mm WeatherDisplay:10.37 W/m2 FEW
07:34 -16.6 °C -17.3 °C 34442.4 hPa WSW 0.5 km/h 6 km/h 92% 0 mm WeatherDisplay:10.37 W/m2 FEW
07:39 -16.7 °C -17.3 °C 34442.4 hPa South 5.1 km/h 17.9 km/h 92% 0 mm WeatherDisplay:10.37 W/m2 FEW
07:44 -16.6 °C -17.3 °C 34442.4 hPa Calm   6 km/h 92% 0 mm WeatherDisplay:10.37 W/m2 FEW
07:49 -16.6 °C -17.3 °C 34442.4 hPa Calm   3.1 km/h 92% 0 mm WeatherDisplay:10.37 W/m2 FEW
07:54 -16.6 °C -17.3 °C 34428.8 hPa WNW 1.3 km/h 9 km/h 92% 0 mm WeatherDisplay:10.37 W/m2 FEW
07:59 -16.6 °C -17.3 °C 34442.4 hPa Calm     92% 0 mm WeatherDisplay:10.37 W/m2 FEW
08:04 -16.6 °C -17.3 °C 34442.4 hPa SW 1 km/h 9 km/h 92% 0 mm WeatherDisplay:10.37 W/m2 FEW
08:09 -16.6 °C -17.3 °C 34442.4 hPa WSW 1 km/h 7.7 km/h 92% 0 mm WeatherDisplay:10.37 W/m2 FEW
08:14 -16.6 °C -17.2 °C 34442.4 hPa Calm     92% 0 mm WeatherDisplay:10.37 W/m2 FEW
08:19 -16.6 °C -17.3 °C 34442.4 hPa Calm   3.1 km/h 92% 0 mm WeatherDisplay:10.37 W/m2 FEW
08:24 -16.6 °C -17.3 °C 34428.8 hPa North 0.8 km/h 6 km/h 92% 0 mm WeatherDisplay:10.37 W/m2 FEW
08:29 -16.6 °C -17.3 °C 34428.8 hPa Calm   9 km/h 92% 0 mm WeatherDisplay:10.37 W/m2 FEW
08:34 -16.7 °C -17.3 °C 34428.8 hPa Calm     92% 0 mm WeatherDisplay:10.37 W/m2 FEW
08:39 -16.6 °C -17.3 °C 34428.8 hPa West 2.6 km/h 9 km/h 92% 0 mm WeatherDisplay:10.37 W/m2 FEW
08:44 -16.6 °C -17.3 °C 34428.8 hPa Calm   3.1 km/h 92% 0 mm WeatherDisplay:10.37 W/m2 FEW
08:49 -16.6 °C -17.3 °C 34428.8 hPa West 0.3 km/h 3.1 km/h 92% 0 mm WeatherDisplay:10.37 W/m2 FEW
08:54 -16.6 °C -17.3 °C 34428.8 hPa NW 2.3 km/h 9 km/h 92% 0 mm WeatherDisplay:10.37 W/m2 FEW
08:59 -16.6 °C -17.3 °C 34428.8 hPa SSW 0.3 km/h 6 km/h 92% 0 mm WeatherDisplay:10.37 W/m2 FEW
09:04 -16.6 °C -17.3 °C 34428.8 hPa Calm     92% 0 mm WeatherDisplay:10.37 W/m2 FEW
09:09 -16.6 °C -17.2 °C 34428.8 hPa SSE 0.3 km/h 3.1 km/h 92% 0 mm WeatherDisplay:10.37 W/m2 FEW
09:14 -16.6 °C -17.2 °C 34428.8 hPa SSW 2.1 km/h 7.7 km/h 92% 0 mm WeatherDisplay:10.37 W/m2 FEW
09:19 -16.6 °C -17.2 °C 34428.8 hPa Calm     92% 0 mm WeatherDisplay:10.37 W/m2 FEW
09:24 -16.6 °C -17.2 °C 34428.8 hPa WNW 6.8 km/h 15 km/h 92% 0 mm WeatherDisplay:10.37 W/m2 FEW
09:29 -16.6 °C -17.2 °C 34428.8 hPa West 3.1 km/h 3.1 km/h 92% 0 mm WeatherDisplay:10.37 W/m2 FEW
09:34 -16.6 °C -17.2 °C 34428.8 hPa Calm   3.1 km/h 92% 0 mm WeatherDisplay:10.37 W/m2 FEW
09:39 -16.6 °C -17.2 °C 34428.8 hPa WNW 0.3 km/h 3.1 km/h 92% 0 mm WeatherDisplay:10.37 W/m2 FEW
09:44 -16.6 °C -17.2 °C 34428.8 hPa South 1.3 km/h   92% 0 mm WeatherDisplay:10.37 W/m2 FEW
09:45 -16.6 °C -17.2 °C 34428.8 hPa South 1.3 km/h 6 km/h 92% 0 mm WeatherDisplay:10.37 W/m2 FEW
09:50 -16.6 °C -17.2 °C 34428.8 hPa ESE 2.6 km/h 9 km/h 92% 0 mm WeatherDisplay:10.37 W/m2 FEW
09:55 -16.5 °C -17.2 °C 34428.8 hPa West 2.3 km/h 6 km/h 92% 0 mm WeatherDisplay:10.37 W/m2 FEW
10:00 -16.5 °C -17.2 °C 34428.8 hPa Calm     92% 0 mm WeatherDisplay:10.37 W/m2 FEW
10:05 -16.5 °C -17.2 °C 34428.8 hPa WSW 2.1 km/h 9 km/h 92% 0 mm WeatherDisplay:10.37 W/m2 FEW
10:10 -16.5 °C -17.2 °C 34418.7 hPa WSW 2.1 km/h 11.9 km/h 92% 0 mm WeatherDisplay:10.37 W/m2 FEW
10:15 -16.6 °C -17.2 °C 34418.7 hPa WNW 1.6 km/h 12.9 km/h 92% 0 mm WeatherDisplay:10.37 W/m2 FEW
10:20 -16.6 °C -17.2 °C 34418.7 hPa SE 1.3 km/h   92% 0 mm WeatherDisplay:10.37 W/m2 FEW
10:25 -16.6 °C -17.2 °C 34418.7 hPa SSE 1 km/h 12.9 km/h 92% 0 mm WeatherDisplay:10.37 W/m2 FEW
10:30 -16.5 °C -17.2 °C 34418.7 hPa WSW 0.3 km/h 5.1 km/h 92% 0 mm WeatherDisplay:10.37 W/m2 FEW
10:35 -16.5 °C -17.2 °C 34418.7 hPa WSW 2.1 km/h 6 km/h 92% 0 mm WeatherDisplay:10.37 W/m2 FEW
10:40 -16.5 °C -17.2 °C 34418.7 hPa WNW 1 km/h 9 km/h 92% 0 mm WeatherDisplay:10.37 W/m2 FEW
10:45 -16.5 °C -17.2 °C 34418.7 hPa West 0.5 km/h 7.7 km/h 92% 0 mm WeatherDisplay:10.37 W/m2 FEW
10:50 -16.5 °C -17.1 °C 34418.7 hPa Calm   3.1 km/h 92% 0 mm WeatherDisplay:10.37 W/m2 FEW
10:55 -16.5 °C -17.1 °C 34418.7 hPa Calm     92% 0 mm WeatherDisplay:10.37 W/m2 FEW
11:00 -16.5 °C -17.1 °C 34418.7 hPa Calm   3.1 km/h 92% 0 mm WeatherDisplay:10.37 W/m2 FEW
11:05 -16.5 °C -17.1 °C 34418.7 hPa Calm   9 km/h 92% 0 mm WeatherDisplay:10.37 W/m2 FEW
11:10 -16.5 °C -17.1 °C 34418.7 hPa Calm   6 km/h 92% 0 mm WeatherDisplay:10.37 W/m2 FEW
11:15 -16.5 °C -17.1 °C 34418.7 hPa Calm   3.1 km/h 92% 0 mm WeatherDisplay:10.37 W/m2 FEW
11:20 -16.4 °C -17.1 °C 34405.1 hPa NNW 6.4 km/h 20.9 km/h 92% 0 mm WeatherDisplay:10.37 W/m2 FEW
11:25 -16.4 °C -17.1 °C 34405.1 hPa WSW 0.8 km/h 11.9 km/h 92% 0 mm WeatherDisplay:10.37 W/m2 FEW
11:30 -16.4 °C -17.1 °C 34418.7 hPa North 1 km/h 9 km/h 92% 0 mm WeatherDisplay:10.37 W/m2 FEW
11:35 -16.4 °C -17.1 °C 34418.7 hPa NW 4.3 km/h 9 km/h 92% 0 mm WeatherDisplay:10.37 W/m2 FEW
11:40 -16.3 °C -17 °C 34405.1 hPa NW 4.2 km/h 9 km/h 92% 0 mm WeatherDisplay:10.37 W/m2 FEW
11:45 -16.3 °C -17 °C 34405.1 hPa Calm     92% 0 mm WeatherDisplay:10.37 W/m2 FEW
11:47 -16.3 °C -17 °C 34405.1 hPa South 4.3 km/h 15 km/h 92% 0 mm WeatherDisplay:10.37 W/m2 FEW
11:52 -16.3 °C -16.9 °C 34405.1 hPa NW 0.8 km/h   92% 0 mm WeatherDisplay:10.37 W/m2 FEW
11:57 -16.3 °C -16.9 °C 34405.1 hPa North 2.6 km/h 7.7 km/h 92% 0 mm WeatherDisplay:10.37 W/m2 FEW
12:02 -16.2 °C -16.9 °C 34395 hPa WSW 5.1 km/h 15 km/h 92% 0 mm WeatherDisplay:10.37 W/m2 FEW
12:07 -16.2 °C -16.8 °C 34395 hPa WNW 2.1 km/h 7.7 km/h 92% 0 mm WeatherDisplay:10.37 W/m2 FEW
12:12 -16.2 °C -16.8 °C 34395 hPa NNW 0.8 km/h 5.1 km/h 92% 0 mm WeatherDisplay:10.37 W/m2 FEW
12:17 -16.2 °C -16.8 °C 34405.1 hPa NW 12.7 km/h 26.9 km/h 92% 0 mm WeatherDisplay:10.37 W/m2 FEW
12:22 -16.2 °C -16.8 °C 34405.1 hPa WNW 7.6 km/h 9 km/h 92% 0 mm WeatherDisplay:10.37 W/m2 FEW
12:27 -16.2 °C -16.8 °C 34405.1 hPa Calm   6 km/h 92% 0 mm WeatherDisplay:10.37 W/m2 FEW
12:32 -16.2 °C -16.8 °C 34405.1 hPa WNW 7.6 km/h 20.9 km/h 92% 0 mm WeatherDisplay:10.37 W/m2 FEW
12:37 -16.2 °C -16.8 °C 34395 hPa West 3.9 km/h 3.9 km/h 92% 0 mm WeatherDisplay:10.37 W/m2 FEW
12:42 -16.2 °C -16.8 °C 34395 hPa WSW 1 km/h 6 km/h 92% 0 mm WeatherDisplay:10.37 W/m2 FEW
12:47 -16.2 °C -16.8 °C 34395 hPa NNE 9 km/h 23.8 km/h 92% 0 mm WeatherDisplay:10.37 W/m2 FEW
12:52 -16.2 °C -16.8 °C 34395 hPa SW 4.7 km/h 9 km/h 92% 0 mm WeatherDisplay:10.37 W/m2 FEW
12:57 -16.2 °C -16.8 °C 34395 hPa West 1.6 km/h 9 km/h 92% 0 mm WeatherDisplay:10.37 W/m2 FEW
13:02 -16.2 °C -16.8 °C 34395 hPa Calm   3.1 km/h 92% 0 mm WeatherDisplay:10.37 W/m2 FEW
13:07 -16.2 °C -16.8 °C 34395 hPa Calm   3.1 km/h 92% 0 mm WeatherDisplay:10.37 W/m2 FEW
13:12 -16.2 °C -16.8 °C 34395 hPa Calm   6 km/h 92% 0 mm WeatherDisplay:10.37 W/m2 FEW
13:17 -16.2 °C -16.8 °C 34395 hPa NNW 1.3 km/h 7.7 km/h 92% 0 mm WeatherDisplay:10.37 W/m2 FEW
13:22 -16.2 °C -16.8 °C 34395 hPa NNW 4.7 km/h 9 km/h 92% 0 mm WeatherDisplay:10.37 W/m2 FEW
13:27 -16.2 °C -16.8 °C 34395 hPa West 0.5 km/h 5.1 km/h 92% 0 mm WeatherDisplay:10.37 W/m2 FEW
13:32 -16.2 °C -16.8 °C 34395 hPa Calm     92% 0 mm WeatherDisplay:10.37 W/m2 FEW
13:37 -16.2 °C -16.8 °C 34395 hPa NW 0.8 km/h 6 km/h 92% 0 mm WeatherDisplay:10.37 W/m2 FEW
13:42 -16.2 °C -16.8 °C 34395 hPa WNW 6.4 km/h 33.6 km/h 92% 0 mm WeatherDisplay:10.37 W/m2 FEW
13:47 -16.2 °C -16.8 °C 34395 hPa Calm     92% 0 mm WeatherDisplay:10.37 W/m2 FEW
13:52 -16.2 °C -16.9 °C 34395 hPa NW 0.3 km/h 3.1 km/h 92% 0 mm WeatherDisplay:10.37 W/m2 FEW
13:57 -16.2 °C -16.9 °C 34395 hPa NNW 1 km/h 9 km/h 92% 0 mm WeatherDisplay:10.37 W/m2 FEW
14:02 -16.2 °C -16.8 °C 34395 hPa Calm   2.6 km/h 92% 0 mm WeatherDisplay:10.37 W/m2 FEW
14:07 -16.2 °C -16.8 °C 34395 hPa NW 1 km/h 9 km/h 92% 0 mm WeatherDisplay:10.37 W/m2 FEW
14:12 -16.2 °C -16.8 °C 34395 hPa NNW 1.3 km/h 9 km/h 92% 0 mm WeatherDisplay:10.37 W/m2 FEW
14:17 -16.2 °C -16.8 °C 34395 hPa Calm     92% 0 mm WeatherDisplay:10.37 W/m2 FEW
14:22 -16.2 °C -16.9 °C 34395 hPa NNW 5.6 km/h 9 km/h 92% 0 mm WeatherDisplay:10.37 W/m2 FEW
14:27 -16.2 °C -16.8 °C 34395 hPa West 0.5 km/h 2.6 km/h 92% 0 mm WeatherDisplay:10.37 W/m2 FEW
14:32 -16.2 °C -16.8 °C 34395 hPa Calm     92% 0 mm WeatherDisplay:10.37 W/m2 FEW
14:37 -16.2 °C -16.8 °C 34395 hPa NW 3.7 km/h 9 km/h 92% 0 mm WeatherDisplay:10.37 W/m2 FEW
14:42 -16.2 °C -16.8 °C 34395 hPa WSW 3.9 km/h 15 km/h 92% 0 mm WeatherDisplay:10.37 W/m2 FEW
14:47 -16.2 °C -16.8 °C 34395 hPa Calm     92% 0 mm WeatherDisplay:10.37 W/m2 FEW
14:52 -16.2 °C -16.9 °C 34395 hPa Calm     92% 0 mm WeatherDisplay:10.37 W/m2 FEW
14:57 -16.3 °C -16.9 °C 34405.1 hPa NW 0.5 km/h 3.1 km/h 92% 0 mm WeatherDisplay:10.37 W/m2 FEW
15:02 -16.2 °C -16.9 °C 34405.1 hPa West 7.2 km/h 11.9 km/h 92% 0 mm WeatherDisplay:10.37 W/m2 FEW
15:07 -16.2 °C -16.9 °C 34405.1 hPa WNW 2.6 km/h 9 km/h 92% 0 mm WeatherDisplay:10.37 W/m2 FEW
15:12 -16.2 °C -16.9 °C 34405.1 hPa Calm   9 km/h 92% 0 mm WeatherDisplay:10.37 W/m2 FEW
15:17 -16.2 °C -16.9 °C 34405.1 hPa WNW 2.3 km/h 20.9 km/h 92% 0 mm WeatherDisplay:10.37 W/m2 FEW
15:22 -16.2 °C -16.9 °C 34405.1 hPa Calm   6 km/h 92% 0 mm WeatherDisplay:10.37 W/m2 FEW
15:27 -16.3 °C -16.9 °C 34405.1 hPa Calm   3.1 km/h 92% 0 mm WeatherDisplay:10.37 W/m2 FEW
15:32 -16.3 °C -16.9 °C 34405.1 hPa Calm   6 km/h 92% 0 mm WeatherDisplay:10.37 W/m2 FEW
15:37 -16.3 °C -17 °C 34405.1 hPa Calm     92% 0 mm WeatherDisplay:10.37 W/m2 FEW
15:42 -16.3 °C -17 °C 34405.1 hPa Calm     92% 0 mm WeatherDisplay:10.37 W/m2 FEW
15:47 -16.3 °C -17 °C 34405.1 hPa WNW 0.3 km/h 2.6 km/h 92% 0 mm WeatherDisplay:10.37 W/m2 FEW
15:52 -16.3 °C -17 °C 34405.1 hPa WNW 0.3 km/h 6 km/h 92% 0 mm WeatherDisplay:10.37 W/m2 FEW
15:57 -16.3 °C -17 °C 34405.1 hPa Calm     92% 0 mm WeatherDisplay:10.37 W/m2 FEW
16:02 -16.4 °C -17.1 °C 34405.1 hPa NNW 3.9 km/h 9 km/h 92% 0 mm WeatherDisplay:10.37 W/m2 FEW
16:07 -16.4 °C -17.1 °C 34405.1 hPa Calm   3.1 km/h 92% 0 mm WeatherDisplay:10.37 W/m2 FEW
16:12 -16.4 °C -17.1 °C 34405.1 hPa Calm     92% 0 mm WeatherDisplay:10.37 W/m2 FEW
16:17 -16.4 °C -17.1 °C 34418.7 hPa Calm     92% 0 mm WeatherDisplay:10.37 W/m2 FEW
16:22 -16.4 °C -17.1 °C 34418.7 hPa WSW 1.8 km/h 6 km/h 92% 0 mm WeatherDisplay:10.37 W/m2 FEW
16:27 -16.4 °C -17.1 °C 34418.7 hPa West 1.3 km/h 6 km/h 92% 0 mm WeatherDisplay:10.37 W/m2 FEW
16:32 -16.4 °C -17.1 °C 34418.7 hPa Calm     92% 0 mm WeatherDisplay:10.37 W/m2 FEW
16:37 -16.4 °C -17.1 °C 34418.7 hPa Calm     92% 0 mm WeatherDisplay:10.37 W/m2 FEW
16:42 -16.5 °C -17.2 °C 34418.7 hPa Calm     92% 0 mm WeatherDisplay:10.37 W/m2 FEW
16:47 -16.6 °C -17.2 °C 34418.7 hPa Calm     92% 0 mm WeatherDisplay:10.37 W/m2 FEW
16:52 -16.6 °C -17.2 °C 34418.7 hPa Calm     92% 0 mm WeatherDisplay:10.37 W/m2 FEW
16:57 -16.6 °C -17.2 °C 34418.7 hPa Calm     92% 0 mm WeatherDisplay:10.37 W/m2 FEW
17:02 -16.6 °C -17.2 °C 34418.7 hPa Calm     92% 0 mm WeatherDisplay:10.37 W/m2 FEW
17:07 -16.6 °C -17.2 °C 34418.7 hPa Calm     92% 0 mm WeatherDisplay:10.37 W/m2 FEW
17:12 -16.6 °C -17.2 °C 34418.7 hPa Calm     92% 0 mm WeatherDisplay:10.37 W/m2 FEW
17:17 -16.6 °C -17.3 °C 34418.7 hPa Calm     92% 0 mm WeatherDisplay:10.37 W/m2 FEW
17:22 -16.6 °C -17.2 °C 34418.7 hPa Calm     92% 0 mm WeatherDisplay:10.37 W/m2 FEW
17:27 -16.6 °C -17.2 °C 34418.7 hPa Calm     92% 0 mm WeatherDisplay:10.37 W/m2 FEW
17:32 -16.6 °C -17.2 °C 34418.7 hPa Calm     92% 0 mm WeatherDisplay:10.37 W/m2 FEW
17:37 -16.6 °C -17.2 °C 34428.8 hPa Calm     92% 0 mm WeatherDisplay:10.37 W/m2 FEW
17:42 -16.6 °C -17.3 °C 34428.8 hPa Calm     92% 0 mm WeatherDisplay:10.37 W/m2 FEW
17:47 -16.6 °C -17.3 °C 34428.8 hPa Calm     92% 0 mm WeatherDisplay:10.37 W/m2 FEW
17:52 -16.6 °C -17.3 °C 34428.8 hPa Calm     92% 0 mm WeatherDisplay:10.37 W/m2 FEW
17:57 -16.6 °C -17.2 °C 34428.8 hPa West 3.7 km/h 9 km/h 92% 0 mm WeatherDisplay:10.37 W/m2 FEW
18:02 -16.5 °C -17.2 °C 34428.8 hPa West 1 km/h 7.7 km/h 92% 0 mm WeatherDisplay:10.37 W/m2 FEW
18:07 -16.5 °C -17.2 °C 34428.8 hPa NNW 1.3 km/h 6 km/h 92% 0 mm WeatherDisplay:10.37 W/m2 FEW
18:12 -16.5 °C -17.1 °C 34428.8 hPa WNW 3.4 km/h 9 km/h 92% 0 mm WeatherDisplay:10.37 W/m2 FEW
18:17 -16.5 °C -17.1 °C 34428.8 hPa Calm     92% 0 mm WeatherDisplay:10.37 W/m2 FEW
18:22 -16.5 °C -17.1 °C 34428.8 hPa Calm     92% 0 mm WeatherDisplay:10.37 W/m2 FEW
18:27 -16.5 °C -17.2 °C 34428.8 hPa SW 0.5 km/h 3.1 km/h 92% 0 mm WeatherDisplay:10.37 W/m2 FEW
18:32 -16.6 °C -17.2 °C 34428.8 hPa Calm     92% 0 mm WeatherDisplay:10.37 W/m2 FEW
18:37 -16.6 °C -17.2 °C 34428.8 hPa Calm     92% 0 mm WeatherDisplay:10.37 W/m2 FEW
18:42 -16.6 °C -17.3 °C 34428.8 hPa Calm     92% 0 mm WeatherDisplay:10.37 W/m2 FEW
18:47 -16.6 °C -17.3 °C 34428.8 hPa Calm     92% 0 mm WeatherDisplay:10.37 W/m2 FEW
18:52 -16.6 °C -17.3 °C 34442.4 hPa WSW 5.1 km/h 9 km/h 92% 0 mm WeatherDisplay:10.37 W/m2 FEW
18:57 -16.6 °C -17.2 °C 34428.8 hPa Calm     92% 0 mm WeatherDisplay:10.37 W/m2 FEW
19:02 -16.6 °C -17.2 °C 34428.8 hPa Calm     92% 0 mm WeatherDisplay:10.37 W/m2 FEW
19:07 -16.6 °C -17.2 °C 34442.4 hPa Calm     92% 0 mm WeatherDisplay:10.37 W/m2 FEW
19:12 -16.6 °C -17.2 °C 34442.4 hPa Calm     92% 0 mm WeatherDisplay:10.37 W/m2 FEW
19:17 -16.6 °C -17.2 °C 34442.4 hPa Calm     92% 0 mm WeatherDisplay:10.37 W/m2 FEW
19:22 -16.5 °C -17.2 °C 34442.4 hPa Calm     92% 0 mm WeatherDisplay:10.37 W/m2 FEW
19:27 -16.5 °C -17.2 °C 34442.4 hPa Calm     92% 0 mm WeatherDisplay:10.37 W/m2 FEW
19:32 -16.6 °C -17.2 °C 34442.4 hPa West 1 km/h 9 km/h 92% 0 mm WeatherDisplay:10.37 W/m2 FEW
19:37 -16.6 °C -17.2 °C 34442.4 hPa Calm     92% 0 mm WeatherDisplay:10.37 W/m2 FEW
19:42 -16.6 °C -17.3 °C 34442.4 hPa Calm     92% 0 mm WeatherDisplay:10.37 W/m2 FEW
19:47 -16.6 °C -17.3 °C 34442.4 hPa Calm     92% 0 mm WeatherDisplay:10.37 W/m2 FEW
19:52 -16.7 °C -17.3 °C 34452.6 hPa Calm     92% 0 mm WeatherDisplay:10.37 W/m2 FEW
20:02 -16.6 °C -17.3 °C 34442.4 hPa Calm     92% 0 mm WeatherDisplay:10.37 W/m2 FEW
20:07 -16.7 °C -17.3 °C 34442.4 hPa Calm     92% 0 mm WeatherDisplay:10.37 W/m2 FEW
20:12 -16.8 °C -17.4 °C 34442.4 hPa West 1 km/h 6 km/h 92% 0 mm WeatherDisplay:10.37 W/m2 FEW
20:17 -16.7 °C -17.4 °C 34442.4 hPa Calm     92% 0 mm WeatherDisplay:10.37 W/m2 FEW
20:22 -16.8 °C -17.4 °C 34442.4 hPa Calm     92% 0 mm WeatherDisplay:10.37 W/m2 FEW
20:27 -16.8 °C -17.4 °C 34452.6 hPa Calm     92% 0 mm WeatherDisplay:10.37 W/m2 FEW
20:32 -16.8 °C -17.5 °C 34452.6 hPa Calm     92% 0 mm WeatherDisplay:10.37 W/m2 FEW
20:37 -16.9 °C -17.6 °C 34452.6 hPa Calm     92% 0 mm WeatherDisplay:10.37 W/m2 FEW
20:42 -17 °C -17.7 °C 34452.6 hPa Calm     92% 0 mm WeatherDisplay:10.37 W/m2 FEW
20:47 -17.1 °C -17.7 °C 34452.6 hPa Calm     92% 0 mm WeatherDisplay:10.37 W/m2 FEW
20:52 -17.1 °C -17.8 °C 34452.6 hPa Calm     92% 0 mm WeatherDisplay:10.37 W/m2 FEW
20:57 -17.2 °C -17.8 °C 34452.6 hPa Calm     92% 0 mm WeatherDisplay:10.37 W/m2 FEW
21:02 -17.3 °C -17.9 °C 34442.4 hPa Calm     92% 0 mm WeatherDisplay:10.37 W/m2 FEW
21:07 -17.3 °C -17.9 °C 34452.6 hPa Calm     92% 0 mm WeatherDisplay:10.37 W/m2 FEW
21:12 -17.3 °C -18 °C 34452.6 hPa Calm     92% 0 mm WeatherDisplay:10.37 W/m2 FEW
21:17 -17.4 °C -18 °C 34442.4 hPa Calm     92% 0 mm WeatherDisplay:10.37 W/m2 FEW
21:22 -17.4 °C -18.1 °C 34452.6 hPa Calm     92% 0 mm WeatherDisplay:10.37 W/m2 FEW
21:27 -17.4 °C -18.1 °C 34452.6 hPa Calm     92% 0 mm WeatherDisplay:10.37 W/m2 FEW
21:32 -17.5 °C -18.2 °C 34452.6 hPa Calm     92% 0 mm WeatherDisplay:10.37 W/m2 FEW
21:37 -17.5 °C -18.2 °C 34452.6 hPa Calm     92% 0 mm WeatherDisplay:10.37 W/m2 FEW
21:42 -17.6 °C -18.2 °C 34452.6 hPa Calm     92% 0 mm WeatherDisplay:10.37 W/m2 FEW
21:47 -17.6 °C -18.2 °C 34452.6 hPa Calm     92% 0 mm WeatherDisplay:10.37 W/m2 FEW
21:52 -17.6 °C -18.2 °C 34452.6 hPa Calm     92% 0 mm WeatherDisplay:10.37 W/m2 FEW
21:57 -17.6 °C -18.3 °C 34452.6 hPa Calm     92% 0 mm WeatherDisplay:10.37 W/m2 FEW
22:02 -17.6 °C -18.3 °C 34462.7 hPa Calm     92% 0 mm WeatherDisplay:10.37 W/m2 FEW
22:07 -17.6 °C -18.3 °C 34462.7 hPa Calm     92% 0 mm WeatherDisplay:10.37 W/m2 FEW
22:12 -17.6 °C -18.3 °C 34462.7 hPa Calm     92% 0 mm WeatherDisplay:10.37 W/m2 FEW
22:22 -17.7 °C -18.3 °C 34452.6 hPa Calm     92% 0 mm WeatherDisplay:10.37 W/m2 FEW
22:27 -17.6 °C -18.3 °C 34452.6 hPa Calm     92% 0 mm WeatherDisplay:10.37 W/m2 FEW
22:32 -17.6 °C -18.2 °C 34452.6 hPa Calm     92% 0 mm WeatherDisplay:10.37 W/m2 FEW
22:37 -17.6 °C -18.2 °C 34452.6 hPa Calm     92% 0 mm WeatherDisplay:10.37 W/m2 FEW
22:42 -17.6 °C -18.2 °C 34462.7 hPa Calm     92% 0 mm WeatherDisplay:10.37 W/m2 FEW
22:47 -17.6 °C -18.2 °C 34462.7 hPa Calm     92% 0 mm WeatherDisplay:10.37 W/m2 FEW
22:52 -17.6 °C -18.2 °C 34462.7 hPa Calm   3.1 km/h 92% 0 mm WeatherDisplay:10.37 W/m2 FEW
22:57 -17.6 °C -18.2 °C 34462.7 hPa Calm     92% 0 mm WeatherDisplay:10.37 W/m2 FEW
23:02 -17.6 °C -18.2 °C 34462.7 hPa Calm     92% 0 mm WeatherDisplay:10.37 W/m2 FEW
23:09 -17.6 °C -18.2 °C 34462.7 hPa Calm     92% 0 mm WeatherDisplay:10.37 W/m2 FEW
23:19 -17.5 °C -18.2 °C 34476.3 hPa Calm     92% 0 mm WeatherDisplay:10.37 W/m2 FEW
23:24 -17.5 °C -18.1 °C 34476.3 hPa Calm     93% 0 mm WeatherDisplay:10.37 W/m2 FEW
23:29 -17.4 °C -18 °C 34476.3 hPa Calm     93% 0 mm WeatherDisplay:10.37 W/m2 FEW
23:34 -17.4 °C -18.1 °C 34476.3 hPa Calm     92% 0 mm WeatherDisplay:10.37 W/m2 FEW
23:39 -17.4 °C -18 °C 34476.3 hPa Calm     92% 0 mm WeatherDisplay:10.37 W/m2 FEW
23:44 -17.3 °C -18 °C 34476.3 hPa Calm     92% 0 mm WeatherDisplay:10.37 W/m2 FEW
23:49 -17.3 °C -18 °C 34476.3 hPa Calm     92% 0 mm WeatherDisplay:10.37 W/m2 FEW
23:54 -17.3 °C -17.9 °C 34486.4 hPa Calm     92% 0 mm WeatherDisplay:10.37 W/m2 FEW
Tuulensuunkaari, Veikkola, Suomi
Compliments of Weather Underground - 2.5 mb